Nearby METAR Reports

 

KBJC - Broomfield/Jeffc, Colorado, USA
Distance from station: SSW 3mi, 5km
Updated: Mon, 22-Oct-2018 2:47pm MDT
Mostly cloudy
Mostly cloudy
 Wind from NNE
Wind: NNE 6 mph , 9 km/h
Temperature: 72°F , 22°C
Dew Point: 28°F , -2°C
Humidity: 20%
Barometer: 30.16 inHg , 1021.3 hPa
Clouds: Mostly cloudy
Visibility: 50 miles , 80 km
Cloud details: Partly cloudy 10000 ft
Mostly cloudy 16000 ft
2018/10/22 20:47 KBJC 222047Z 02005KT 50SM SCT100 BKN160 22/M02 A3016
KEIK - Erie Muni, Colorado, USA
Distance from station: N 5mi, 9km
Updated: Mon, 22-Oct-2018 3:36pm MDT
Clear
Clear
 Wind from NE
Wind: NE 7 mph , 11 km/h
Temperature: 72°F , 22°C
Dew Point: 28°F , -2°C
Humidity: 20%
Barometer: 30.18 inHg , 1022 hPa
Clouds: Clear
Visibility: 10 miles , 16 km
2018/10/22 21:36 KEIK 222136Z AUTO 05006KT 10SM CLR 22/M02 A3018 RMK AO2 LTG DSNT NW T02151020
 
KBDU - Boulder Muni, Colorado, USA
Distance from station: NW 11mi, 17km
Updated: Mon, 22-Oct-2018 3:35pm MDT
Clear
Clear
 Wind from N
Wind: N 6 mph , 9 km/h
Temperature: 68°F , 20°C
Dew Point: 32°F , 0°C
Humidity: 26%
Barometer: 30.14 inHg , 1020.7 hPa
Clouds: Clear
Visibility: 10 miles , 16 km
2018/10/22 21:35 KBDU 222135Z AUTO 36005KT 10SM CLR 20/00 A3014 RMK AO2 LTG DSNT N
KLMO - Longmont/Vbrand, Colorado, USA
Distance from station: NNW 16mi, 27km
Updated: Mon, 22-Oct-2018 3:35pm MDT
Clear
Clear
 Wind from NNE
Wind: NNE 5 mph , 7 km/h
Temperature: 72°F , 22°C
Dew Point: 34°F , 1°C
Humidity: 25%
Barometer: 30.16 inHg , 1021.3 hPa
Clouds: Clear
Visibility: 10 miles , 16 km
2018/10/22 21:35 KLMO 222135Z AUTO 03004KT 10SM CLR 22/01 A3016 RMK AO2 T02150014
 
KBKF - Buckley Angb/Den, Colorado, USA
Distance from station: SE 23mi, 37km
Updated: Mon, 22-Oct-2018 2:58pm MDT
Partly cloudy
Partly cloudy
 Wind from E
Wind: E 9 mph , 15 km/h
Temperature: 70°F , 21°C
Dew Point: 28°F , -2°C
Humidity: 21%
Barometer: 30.15 inHg , 1021 hPa
Clouds: Partly cloudy
Visibility: 10 miles , 16 km
Cloud details: Few Clouds 9000 ft
Partly cloudy 15000 ft
Partly cloudy 22000 ft
2018/10/22 20:58 KBKF 222058Z 09008KT 10SM FEW090 SCT150 SCT220 21/M02 A3015 RMK AO2A SLP161 T02101022 57017
KDEN - Denver (dia), Colorado, USA
Distance from station: ESE 23mi, 37km
Updated: Mon, 22-Oct-2018 2:53pm MDT
Partly cloudy
Partly cloudy
 Wind from ESE
Wind: ESE 13 mph , 20 km/h, Gust: 21 mph , 33 km/h
Temperature: 73°F , 23°C
Dew Point: 25°F , -4°C
Humidity: 16%
Barometer: 30.13 inHg , 1020.3 hPa
Clouds: Partly cloudy
Visibility: 10 miles , 16 km
Cloud details: Partly cloudy 10000 ft
Partly cloudy 15000 ft
Partly cloudy 22000 ft
2018/10/22 20:53 KDEN 222053Z 11011G18KT 10SM SCT100 SCT150 SCT220 23/M04 A3013 RMK AO2 SLP149 T02281039 56018
 
KAPA - Denver/Arapahoe, Colorado, USA
Distance from station: SSE 28mi, 46km
Updated: Mon, 22-Oct-2018 2:53pm MDT
Mostly cloudy
Mostly cloudy
 Wind from SE
Wind: SE 7 mph , 11 km/h
Temperature: 72°F , 22°C
Dew Point: 27°F , -3°C
Humidity: 19%
Barometer: 30.15 inHg , 1021 hPa
Clouds: Mostly cloudy
Visibility: 10 miles , 16 km
Cloud details: Partly cloudy 11000 ft
Partly cloudy 15000 ft
Mostly cloudy 22000 ft
2018/10/22 20:53 KAPA 222053Z 13006KT 10SM SCT110 SCT150 BKN220 22/M03 A3015 RMK AO2 SLP161 ACSL DSNT S T02221028 56018
KFTG - Denver F. Range, Colorado, USA
Distance from station: ESE 30mi, 48km
Updated: Mon, 22-Oct-2018 2:50pm MDT
Mostly cloudy
Mostly cloudy
 Wind from ENE
Wind: ENE 15 mph , 24 km/h, Gust: 21 mph , 33 km/h
Temperature: 73°F , 23°C
Dew Point: 27°F , -3°C
Humidity: 17%
Barometer: 30.16 inHg , 1021.3 hPa
Clouds: Mostly cloudy
Visibility: 10 miles , 16 km
Cloud details: Partly cloudy 12000 ft
Mostly cloudy 22000 ft
2018/10/22 20:50 KFTG 222050Z 07013G18KT 10SM SCT120 BKN220 23/M03 A3016
 
KFNL - Ft Collins/Lovel, Colorado, USA
Distance from station: N 35mi, 57km
Updated: Mon, 22-Oct-2018 2:56pm MDT
Clear
Clear
 Wind from E
Wind: E 9 mph , 15 km/h
Temperature: 72°F , 22°C
Dew Point: 34°F , 1°C
Humidity: 25%
Barometer: 30.15 inHg , 1021 hPa
Clouds: Clear
Visibility: 10 miles , 16 km
2018/10/22 20:56 KFNL 222056Z AUTO 10008KT 10SM CLR 22/01 A3015 RMK AO2 SLP172 6//// T02220006 56016 PNO $
K0CO - Berthoud Pass, Colorado, USA
Distance from station: WSW 38mi, 61km
Updated: Mon, 22-Oct-2018 3:47pm MDT
Mostly cloudy
Mostly cloudy
 Wind from SE
Wind: SE 17 mph , 28 km/h
Temperature: 32°F , 0°C
Wind Chill: 21°F , -6°C
Dew Point: 19°F , -7°C
Humidity: 60%
Barometer: 30.47 inHg , 1031.8 hPa
Clouds: Mostly cloudy
Visibility: 10 miles , 16 km
Cloud details: Mostly cloudy 8000 ft
Mostly cloudy 8500 ft
2018/10/22 21:47 K0CO 222147Z AUTO 13015KT 10SM BKN080 BKN085 00/M07 A3047 RMK AO2 LTG DSNT N AND SW
 
KGXY - Greeley/Weld, Colorado, USA
Distance from station: NE 41mi, 66km
Updated: Mon, 22-Oct-2018 2:56pm MDT
Clear
Clear
 Wind from ESE
Wind: ESE 15 mph , 24 km/h
Temperature: 73°F , 23°C
Dew Point: 32°F , 0°C
Humidity: 22%
Barometer: 30.14 inHg , 1020.7 hPa
Clouds: Clear
Visibility: 10 miles , 16 km
2018/10/22 20:56 KGXY 222056Z AUTO 12013KT 10SM CLR 23/00 A3014 RMK AO2 SLP193 T02280000 56018